sensor_id;sensor_type;location;lat;lon;timestamp;pressure;altitude;pressure_sealevel;temperature;humidity
73422;BME280;61637;47.760;-122.022;2023-04-05T00:00:00;102268.97799999999;;;8.4;unknown
73422;BME280;61637;47.760;-122.022;2023-04-05T00:02:00;102268.97799999999;;;8.4;unknown
73422;BME280;61637;47.760;-122.022;2023-04-05T00:04:00;102268.97799999999;;;8.4;unknown
73422;BME280;61637;47.760;-122.022;2023-04-05T00:06:00;102268.97799999999;;;8.4;unknown
73422;BME280;61637;47.760;-122.022;2023-04-05T00:08:01;102268.97799999999;;;8.3;unknown
73422;BME280;61637;47.760;-122.022;2023-04-05T00:10:00;102268.97799999999;;;8.3;unknown
73422;BME280;61637;47.760;-122.022;2023-04-05T00:12:00;102268.97799999999;;;8.3;unknown
73422;BME280;61637;47.760;-122.022;2023-04-05T00:14:01;102268.97799999999;;;8.2;unknown
73422;BME280;61637;47.760;-122.022;2023-04-05T00:16:00;102268.97799999999;;;8.2;unknown
73422;BME280;61637;47.760;-122.022;2023-04-05T00:18:00;102268.97799999999;;;8.2;unknown
73422;BME280;61637;47.760;-122.022;2023-04-05T00:20:00;102268.97799999999;;;8.2;unknown
73422;BME280;61637;47.760;-122.022;2023-04-05T00:22:00;102268.97799999999;;;8.2;unknown
73422;BME280;61637;47.760;-122.022;2023-04-05T00:24:00;102268.97799999999;;;8.2;unknown
73422;BME280;61637;47.760;-122.022;2023-04-05T00:26:00;102268.97799999999;;;8.2;unknown
73422;BME280;61637;47.760;-122.022;2023-04-05T00:28:00;102268.97799999999;;;8.3;unknown
73422;BME280;61637;47.760;-122.022;2023-04-05T00:30:00;102268.97799999999;;;8.3;unknown
73422;BME280;61637;47.760;-122.022;2023-04-05T00:32:00;102268.97799999999;;;8.3;unknown
73422;BME280;61637;47.760;-122.022;2023-04-05T00:34:00;102268.97799999999;;;8.3;unknown
73422;BME280;61637;47.760;-122.022;2023-04-05T00:36:08;102268.97799999999;;;8.2;unknown
73422;BME280;61637;47.760;-122.022;2023-04-05T00:38:00;102268.97799999999;;;8.2;unknown
73422;BME280;61637;47.760;-122.022;2023-04-05T00:40:00;102268.97799999999;;;8.2;unknown
73422;BME280;61637;47.760;-122.022;2023-04-05T00:42:01;102268.97799999999;;;8.1;unknown
73422;BME280;61637;47.760;-122.022;2023-04-05T00:44:00;102268.97799999999;;;8.1;unknown
73422;BME280;61637;47.760;-122.022;2023-04-05T00:46:00;102268.97799999999;;;8.0;unknown
73422;BME280;61637;47.760;-122.022;2023-04-05T00:48:00;102268.97799999999;;;7.9;unknown
73422;BME280;61637;47.760;-122.022;2023-04-05T00:50:00;102268.97799999999;;;7.9;unknown
73422;BME280;61637;47.760;-122.022;2023-04-05T00:52:01;102268.97799999999;;;7.9;unknown
73422;BME280;61637;47.760;-122.022;2023-04-05T00:54:00;102268.97799999999;;;7.8;unknown
73422;BME280;61637;47.760;-122.022;2023-04-05T00:56:00;102268.97799999999;;;7.9;unknown
73422;BME280;61637;47.760;-122.022;2023-04-05T00:58:00;102268.97799999999;;;7.8;unknown
73422;BME280;61637;47.760;-122.022;2023-04-05T01:00:00;102268.97799999999;;;7.9;unknown
73422;BME280;61637;47.760;-122.022;2023-04-05T01:02:01;102268.97799999999;;;7.9;unknown
73422;BME280;61637;47.760;-122.022;2023-04-05T01:04:00;102268.97799999999;;;7.9;unknown
73422;BME280;61637;47.760;-122.022;2023-04-05T01:08:03;102268.97799999999;;;7.9;unknown
73422;BME280;61637;47.760;-122.022;2023-04-05T01:10:00;102268.97799999999;;;8.0;unknown
73422;BME280;61637;47.760;-122.022;2023-04-05T01:12:02;102268.97799999999;;;8.0;unknown
73422;BME280;61637;47.760;-122.022;2023-04-05T01:14:01;102268.97799999999;;;8.1;unknown
73422;BME280;61637;47.760;-122.022;2023-04-05T01:16:00;102268.97799999999;;;8.1;unknown
73422;BME280;61637;47.760;-122.022;2023-04-05T01:18:01;102268.97799999999;;;8.1;unknown
73422;BME280;61637;47.760;-122.022;2023-04-05T01:20:02;102268.97799999999;;;8.1;unknown
73422;BME280;61637;47.760;-122.022;2023-04-05T01:22:06;102268.97799999999;;;8.0;unknown
73422;BME280;61637;47.760;-122.022;2023-04-05T01:24:03;102268.97799999999;;;7.9;unknown
73422;BME280;61637;47.760;-122.022;2023-04-05T01:26:10;102268.97799999999;;;7.8;unknown
73422;BME280;61637;47.760;-122.022;2023-04-05T01:28:07;102268.97799999999;;;7.8;unknown
73422;BME280;61637;47.760;-122.022;2023-04-05T01:30:03;102268.97799999999;;;7.8;unknown
73422;BME280;61637;47.760;-122.022;2023-04-05T01:32:02;102268.97799999999;;;7.7;unknown
73422;BME280;61637;47.760;-122.022;2023-04-05T01:34:03;102268.97799999999;;;7.6;unknown
73422;BME280;61637;47.760;-122.022;2023-04-05T01:36:03;102268.97799999999;;;7.4;unknown
73422;BME280;61637;47.760;-122.022;2023-04-05T01:38:01;102268.97799999999;;;7.4;unknown
73422;BME280;61637;47.760;-122.022;2023-04-05T01:40:01;102268.97799999999;;;7.3;unknown
73422;BME280;61637;47.760;-122.022;2023-04-05T01:42:01;102268.97799999999;;;7.2;unknown
73422;BME280;61637;47.760;-122.022;2023-04-05T01:44:00;102268.97799999999;;;7.1;unknown
73422;BME280;61637;47.760;-122.022;2023-04-05T01:46:00;102268.97799999999;;;7.0;unknown
73422;BME280;61637;47.760;-122.022;2023-04-05T01:48:00;102268.97799999999;;;6.9;unknown
73422;BME280;61637;47.760;-122.022;2023-04-05T01:50:00;102268.97799999999;;;6.8;unknown
73422;BME280;61637;47.760;-122.022;2023-04-05T01:52:01;102268.97799999999;;;6.8;unknown
73422;BME280;61637;47.760;-122.022;2023-04-05T01:54:00;102268.97799999999;;;6.7;unknown
73422;BME280;61637;47.760;-122.022;2023-04-05T01:56:00;102268.97799999999;;;6.6;unknown
73422;BME280;61637;47.760;-122.022;2023-04-05T01:58:00;102268.97799999999;;;6.5;unknown
73422;BME280;61637;47.760;-122.022;2023-04-05T02:00:00;102268.97799999999;;;6.4;unknown
73422;BME280;61637;47.760;-122.022;2023-04-05T02:02:00;102268.97799999999;;;6.3;unknown
73422;BME280;61637;47.760;-122.022;2023-04-05T02:04:00;102268.97799999999;;;6.3;unknown
73422;BME280;61637;47.760;-122.022;2023-04-05T02:06:00;102268.97799999999;;;6.2;unknown
73422;BME280;61637;47.760;-122.022;2023-04-05T02:08:00;102268.97799999999;;;6.1;unknown
73422;BME280;61637;47.760;-122.022;2023-04-05T02:10:00;102268.97799999999;;;6.1;unknown
73422;BME280;61637;47.760;-122.022;2023-04-05T02:12:00;102268.97799999999;;;5.9;unknown
73422;BME280;61637;47.760;-122.022;2023-04-05T02:14:00;102268.97799999999;;;5.9;unknown
73422;BME280;61637;47.760;-122.022;2023-04-05T02:16:01;102268.97799999999;;;5.8;unknown
73422;BME280;61637;47.760;-122.022;2023-04-05T02:18:00;102268.97799999999;;;5.8;unknown
73422;BME280;61637;47.760;-122.022;2023-04-05T02:20:00;102268.97799999999;;;5.8;unknown
73422;BME280;61637;47.760;-122.022;2023-04-05T02:22:00;102268.97799999999;;;5.7;unknown
73422;BME280;61637;47.760;-122.022;2023-04-05T02:24:00;102268.97799999999;;;5.7;unknown
73422;BME280;61637;47.760;-122.022;2023-04-05T02:26:00;102268.97799999999;;;5.6;unknown
73422;BME280;61637;47.760;-122.022;2023-04-05T02:28:00;102268.97799999999;;;5.6;unknown
73422;BME280;61637;47.760;-122.022;2023-04-05T02:30:00;102268.97799999999;;;5.5;unknown
73422;BME280;61637;47.760;-122.022;2023-04-05T02:32:00;102268.97799999999;;;5.4;unknown
73422;BME280;61637;47.760;-122.022;2023-04-05T02:34:00;102268.97799999999;;;5.4;unknown
73422;BME280;61637;47.760;-122.022;2023-04-05T02:36:02;102268.97799999999;;;5.3;unknown
73422;BME280;61637;47.760;-122.022;2023-04-05T02:38:00;102268.97799999999;;;5.3;unknown
73422;BME280;61637;47.760;-122.022;2023-04-05T02:40:01;102268.97799999999;;;5.3;unknown
73422;BME280;61637;47.760;-122.022;2023-04-05T02:42:01;102268.97799999999;;;5.2;unknown
73422;BME280;61637;47.760;-122.022;2023-04-05T02:44:01;102268.97799999999;;;5.2;unknown
73422;BME280;61637;47.760;-122.022;2023-04-05T02:46:00;102268.97799999999;;;5.1;unknown
73422;BME280;61637;47.760;-122.022;2023-04-05T02:48:00;102268.97799999999;;;5.1;unknown
73422;BME280;61637;47.760;-122.022;2023-04-05T02:50:00;102268.97799999999;;;5.0;unknown
73422;BME280;61637;47.760;-122.022;2023-04-05T02:52:00;102268.97799999999;;;5.0;unknown
73422;BME280;61637;47.760;-122.022;2023-04-05T02:54:01;102268.97799999999;;;4.9;unknown
73422;BME280;61637;47.760;-122.022;2023-04-05T02:56:00;102268.97799999999;;;4.9;unknown
73422;BME280;61637;47.760;-122.022;2023-04-05T02:58:00;102268.97799999999;;;4.8;unknown
73422;BME280;61637;47.760;-122.022;2023-04-05T03:00:00;102268.97799999999;;;4.8;unknown
73422;BME280;61637;47.760;-122.022;2023-04-05T03:02:00;102268.97799999999;;;4.7;unknown
73422;BME280;61637;47.760;-122.022;2023-04-05T03:04:01;102268.97799999999;;;4.7;unknown
73422;BME280;61637;47.760;-122.022;2023-04-05T03:06:01;102268.97799999999;;;4.6;unknown
73422;BME280;61637;47.760;-122.022;2023-04-05T03:08:01;102268.97799999999;;;4.6;unknown
73422;BME280;61637;47.760;-122.022;2023-04-05T03:10:00;102268.97799999999;;;4.4;unknown
73422;BME280;61637;47.760;-122.022;2023-04-05T03:12:01;102268.97799999999;;;4.4;unknown
73422;BME280;61637;47.760;-122.022;2023-04-05T03:14:00;102268.97799999999;;;4.3;unknown
73422;BME280;61637;47.760;-122.022;2023-04-05T03:16:01;102268.97799999999;;;4.3;unknown
73422;BME280;61637;47.760;-122.022;2023-04-05T03:18:00;102268.97799999999;;;4.3;unknown
73422;BME280;61637;47.760;-122.022;2023-04-05T03:20:00;102268.97799999999;;;4.3;unknown
73422;BME280;61637;47.760;-122.022;2023-04-05T03:22:00;102268.97799999999;;;4.3;unknown
73422;BME280;61637;47.760;-122.022;2023-04-05T03:24:00;102268.97799999999;;;4.3;unknown
73422;BME280;61637;47.760;-122.022;2023-04-05T03:26:00;102268.97799999999;;;4.2;unknown
73422;BME280;61637;47.760;-122.022;2023-04-05T03:28:01;102268.97799999999;;;4.2;unknown
73422;BME280;61637;47.760;-122.022;2023-04-05T03:30:00;102268.97799999999;;;4.2;unknown
73422;BME280;61637;47.760;-122.022;2023-04-05T03:32:00;102268.97799999999;;;4.2;unknown
73422;BME280;61637;47.760;-122.022;2023-04-05T03:34:00;102268.97799999999;;;4.1;unknown
73422;BME280;61637;47.760;-122.022;2023-04-05T03:36:00;102268.97799999999;;;4.2;unknown
73422;BME280;61637;47.760;-122.022;2023-04-05T03:38:00;102268.97799999999;;;4.1;unknown
73422;BME280;61637;47.760;-122.022;2023-04-05T03:40:00;102268.97799999999;;;4.2;unknown
73422;BME280;61637;47.760;-122.022;2023-04-05T03:42:00;102268.97799999999;;;4.1;unknown
73422;BME280;61637;47.760;-122.022;2023-04-05T03:44:00;102268.97799999999;;;4.1;unknown
73422;BME280;61637;47.760;-122.022;2023-04-05T03:46:00;102268.97799999999;;;4.1;unknown
73422;BME280;61637;47.760;-122.022;2023-04-05T03:48:00;102268.97799999999;;;4.1;unknown
73422;BME280;61637;47.760;-122.022;2023-04-05T03:50:00;102268.97799999999;;;4.1;unknown
73422;BME280;61637;47.760;-122.022;2023-04-05T03:52:00;102268.97799999999;;;4.0;unknown
73422;BME280;61637;47.760;-122.022;2023-04-05T03:54:00;102268.97799999999;;;4.1;unknown
73422;BME280;61637;47.760;-122.022;2023-04-05T03:56:00;102268.97799999999;;;4.1;unknown
73422;BME280;61637;47.760;-122.022;2023-04-05T03:58:00;102268.97799999999;;;4.0;unknown
73422;BME280;61637;47.760;-122.022;2023-04-05T04:00:00;102268.97799999999;;;4.0;unknown
73422;BME280;61637;47.760;-122.022;2023-04-05T04:02:01;102268.97799999999;;;3.9;unknown
73422;BME280;61637;47.760;-122.022;2023-04-05T04:04:01;102268.97799999999;;;3.9;unknown
73422;BME280;61637;47.760;-122.022;2023-04-05T04:06:00;102268.97799999999;;;3.9;unknown
73422;BME280;61637;47.760;-122.022;2023-04-05T04:08:00;102268.97799999999;;;3.9;unknown
73422;BME280;61637;47.760;-122.022;2023-04-05T04:10:00;102268.97799999999;;;3.9;unknown
73422;BME280;61637;47.760;-122.022;2023-04-05T04:12:00;102268.97799999999;;;3.9;unknown
73422;BME280;61637;47.760;-122.022;2023-04-05T04:14:00;102268.97799999999;;;3.9;unknown
73422;BME280;61637;47.760;-122.022;2023-04-05T04:16:00;102268.97799999999;;;3.9;unknown
73422;BME280;61637;47.760;-122.022;2023-04-05T04:18:00;102268.97799999999;;;3.9;unknown
73422;BME280;61637;47.760;-122.022;2023-04-05T04:20:00;102268.97799999999;;;3.9;unknown
73422;BME280;61637;47.760;-122.022;2023-04-05T04:22:00;102268.97799999999;;;3.9;unknown
73422;BME280;61637;47.760;-122.022;2023-04-05T04:24:00;102268.97799999999;;;3.9;unknown
73422;BME280;61637;47.760;-122.022;2023-04-05T04:26:00;102268.97799999999;;;3.9;unknown
73422;BME280;61637;47.760;-122.022;2023-04-05T04:28:01;102268.97799999999;;;3.8;unknown
73422;BME280;61637;47.760;-122.022;2023-04-05T04:30:00;102268.97799999999;;;3.8;unknown
73422;BME280;61637;47.760;-122.022;2023-04-05T04:32:00;102268.97799999999;;;3.8;unknown
73422;BME280;61637;47.760;-122.022;2023-04-05T04:34:00;102268.97799999999;;;3.8;unknown
73422;BME280;61637;47.760;-122.022;2023-04-05T04:36:04;102268.97799999999;;;3.7;unknown
73422;BME280;61637;47.760;-122.022;2023-04-05T04:38:01;102268.97799999999;;;3.7;unknown
73422;BME280;61637;47.760;-122.022;2023-04-05T04:40:00;102268.97799999999;;;3.7;unknown
73422;BME280;61637;47.760;-122.022;2023-04-05T04:42:00;102268.97799999999;;;3.7;unknown
73422;BME280;61637;47.760;-122.022;2023-04-05T04:44:00;102268.97799999999;;;3.6;unknown
73422;BME280;61637;47.760;-122.022;2023-04-05T04:46:00;102268.97799999999;;;3.6;unknown
73422;BME280;61637;47.760;-122.022;2023-04-05T04:48:00;102268.97799999999;;;3.6;unknown
73422;BME280;61637;47.760;-122.022;2023-04-05T04:50:00;102268.97799999999;;;3.6;unknown
73422;BME280;61637;47.760;-122.022;2023-04-05T04:52:00;102268.97799999999;;;3.6;unknown
73422;BME280;61637;47.760;-122.022;2023-04-05T04:54:00;102268.97799999999;;;3.7;unknown
73422;BME280;61637;47.760;-122.022;2023-04-05T04:56:00;102268.97799999999;;;3.6;unknown
73422;BME280;61637;47.760;-122.022;2023-04-05T04:58:00;102268.97799999999;;;3.6;unknown
73422;BME280;61637;47.760;-122.022;2023-04-05T05:00:00;102268.97799999999;;;3.6;unknown
73422;BME280;61637;47.760;-122.022;2023-04-05T05:02:00;102268.97799999999;;;3.6;unknown
73422;BME280;61637;47.760;-122.022;2023-04-05T05:04:02;102268.97799999999;;;3.6;unknown
73422;BME280;61637;47.760;-122.022;2023-04-05T05:06:00;102268.97799999999;;;3.5;unknown
73422;BME280;61637;47.760;-122.022;2023-04-05T05:08:00;102268.97799999999;;;3.5;unknown
73422;BME280;61637;47.760;-122.022;2023-04-05T05:10:00;102268.97799999999;;;3.4;unknown
73422;BME280;61637;47.760;-122.022;2023-04-05T05:12:00;102268.97799999999;;;3.4;unknown
73422;BME280;61637;47.760;-122.022;2023-04-05T05:14:00;102268.97799999999;;;3.4;unknown
73422;BME280;61637;47.760;-122.022;2023-04-05T05:16:00;102268.97799999999;;;3.3;unknown
73422;BME280;61637;47.760;-122.022;2023-04-05T05:18:00;102268.97799999999;;;3.3;unknown
73422;BME280;61637;47.760;-122.022;2023-04-05T05:20:00;102268.97799999999;;;3.3;unknown
73422;BME280;61637;47.760;-122.022;2023-04-05T05:22:00;102268.97799999999;;;3.2;unknown
73422;BME280;61637;47.760;-122.022;2023-04-05T05:24:00;102268.97799999999;;;3.2;unknown
73422;BME280;61637;47.760;-122.022;2023-04-05T05:26:00;102268.97799999999;;;3.2;unknown
73422;BME280;61637;47.760;-122.022;2023-04-05T05:28:00;102268.97799999999;;;3.1;unknown
73422;BME280;61637;47.760;-122.022;2023-04-05T05:30:00;102268.97799999999;;;3.1;unknown
73422;BME280;61637;47.760;-122.022;2023-04-05T05:32:00;102268.97799999999;;;3.1;unknown
73422;BME280;61637;47.760;-122.022;2023-04-05T05:34:00;102268.97799999999;;;3.0;unknown
73422;BME280;61637;47.760;-122.022;2023-04-05T05:36:00;102268.97799999999;;;3.0;unknown
73422;BME280;61637;47.760;-122.022;2023-04-05T05:38:00;102268.97799999999;;;2.9;unknown
73422;BME280;61637;47.760;-122.022;2023-04-05T05:40:00;102268.97799999999;;;2.9;unknown
73422;BME280;61637;47.760;-122.022;2023-04-05T05:42:00;102268.97799999999;;;2.9;unknown
73422;BME280;61637;47.760;-122.022;2023-04-05T05:44:00;102268.97799999999;;;2.8;unknown
73422;BME280;61637;47.760;-122.022;2023-04-05T05:46:01;102268.97799999999;;;2.8;unknown
73422;BME280;61637;47.760;-122.022;2023-04-05T05:48:00;102268.97799999999;;;2.8;unknown
73422;BME280;61637;47.760;-122.022;2023-04-05T05:50:00;102268.97799999999;;;2.7;unknown
73422;BME280;61637;47.760;-122.022;2023-04-05T05:52:00;102268.97799999999;;;2.7;unknown
73422;BME280;61637;47.760;-122.022;2023-04-05T05:54:00;102268.97799999999;;;2.7;unknown
73422;BME280;61637;47.760;-122.022;2023-04-05T05:56:00;102268.97799999999;;;2.7;unknown
73422;BME280;61637;47.760;-122.022;2023-04-05T05:58:00;102268.97799999999;;;2.6;unknown
73422;BME280;61637;47.760;-122.022;2023-04-05T06:00:01;102268.97799999999;;;2.6;unknown
73422;BME280;61637;47.760;-122.022;2023-04-05T06:02:00;102268.97799999999;;;2.6;unknown
73422;BME280;61637;47.760;-122.022;2023-04-05T06:04:00;102268.97799999999;;;2.6;unknown
73422;BME280;61637;47.760;-122.022;2023-04-05T06:06:00;102268.97799999999;;;2.6;unknown
73422;BME280;61637;47.760;-122.022;2023-04-05T06:08:00;102268.97799999999;;;2.6;unknown
73422;BME280;61637;47.760;-122.022;2023-04-05T06:10:00;102268.97799999999;;;2.6;unknown
73422;BME280;61637;47.760;-122.022;2023-04-05T06:12:00;102268.97799999999;;;2.6;unknown
73422;BME280;61637;47.760;-122.022;2023-04-05T06:14:00;102268.97799999999;;;2.6;unknown
73422;BME280;61637;47.760;-122.022;2023-04-05T06:16:00;102268.97799999999;;;2.5;unknown
73422;BME280;61637;47.760;-122.022;2023-04-05T06:18:00;102268.97799999999;;;2.5;unknown
73422;BME280;61637;47.760;-122.022;2023-04-05T06:20:00;102268.97799999999;;;2.5;unknown
73422;BME280;61637;47.760;-122.022;2023-04-05T06:22:00;102268.97799999999;;;2.6;unknown
73422;BME280;61637;47.760;-122.022;2023-04-05T06:24:00;102268.97799999999;;;2.5;unknown
73422;BME280;61637;47.760;-122.022;2023-04-05T06:26:00;102268.97799999999;;;2.5;unknown
73422;BME280;61637;47.760;-122.022;2023-04-05T06:28:01;102268.97799999999;;;2.5;unknown
73422;BME280;61637;47.760;-122.022;2023-04-05T06:30:00;102268.97799999999;;;2.5;unknown
73422;BME280;61637;47.760;-122.022;2023-04-05T06:32:00;102268.97799999999;;;2.4;unknown
73422;BME280;61637;47.760;-122.022;2023-04-05T06:34:00;102268.97799999999;;;2.5;unknown
73422;BME280;61637;47.760;-122.022;2023-04-05T06:36:00;102268.97799999999;;;2.4;unknown
73422;BME280;61637;47.760;-122.022;2023-04-05T06:38:00;102268.97799999999;;;2.4;unknown
73422;BME280;61637;47.760;-122.022;2023-04-05T06:40:00;102268.97799999999;;;2.4;unknown
73422;BME280;61637;47.760;-122.022;2023-04-05T06:42:00;102268.97799999999;;;2.3;unknown
73422;BME280;61637;47.760;-122.022;2023-04-05T06:44:00;102268.97799999999;;;2.3;unknown
73422;BME280;61637;47.760;-122.022;2023-04-05T06:46:00;102268.97799999999;;;2.3;unknown
73422;BME280;61637;47.760;-122.022;2023-04-05T06:48:00;102268.97799999999;;;2.3;unknown
73422;BME280;61637;47.760;-122.022;2023-04-05T06:50:00;102268.97799999999;;;2.3;unknown
73422;BME280;61637;47.760;-122.022;2023-04-05T06:52:00;102268.97799999999;;;2.3;unknown
73422;BME280;61637;47.760;-122.022;2023-04-05T06:54:00;102268.97799999999;;;2.3;unknown
73422;BME280;61637;47.760;-122.022;2023-04-05T06:56:01;102268.97799999999;;;2.2;unknown
73422;BME280;61637;47.760;-122.022;2023-04-05T06:58:00;102268.97799999999;;;2.2;unknown
73422;BME280;61637;47.760;-122.022;2023-04-05T07:00:00;102268.97799999999;;;2.1;unknown
73422;BME280;61637;47.760;-122.022;2023-04-05T07:02:00;102268.97799999999;;;2.1;unknown
73422;BME280;61637;47.760;-122.022;2023-04-05T07:04:00;102268.97799999999;;;2.0;unknown
73422;BME280;61637;47.760;-122.022;2023-04-05T07:06:00;102268.97799999999;;;2.0;unknown
73422;BME280;61637;47.760;-122.022;2023-04-05T07:08:00;102268.97799999999;;;1.9;unknown
73422;BME280;61637;47.760;-122.022;2023-04-05T07:10:00;102268.97799999999;;;1.9;unknown
73422;BME280;61637;47.760;-122.022;2023-04-05T07:12:01;102268.97799999999;;;1.8;unknown
73422;BME280;61637;47.760;-122.022;2023-04-05T07:14:00;102268.97799999999;;;1.8;unknown
73422;BME280;61637;47.760;-122.022;2023-04-05T07:16:01;102268.97799999999;;;1.8;unknown
73422;BME280;61637;47.760;-122.022;2023-04-05T07:18:00;102268.97799999999;;;1.8;unknown
73422;BME280;61637;47.760;-122.022;2023-04-05T07:20:00;102268.97799999999;;;1.8;unknown
73422;BME280;61637;47.760;-122.022;2023-04-05T07:22:00;102268.97799999999;;;1.8;unknown
73422;BME280;61637;47.760;-122.022;2023-04-05T07:24:00;102268.97799999999;;;1.8;unknown
73422;BME280;61637;47.760;-122.022;2023-04-05T07:26:01;102268.97799999999;;;1.8;unknown
73422;BME280;61637;47.760;-122.022;2023-04-05T07:28:00;102268.97799999999;;;1.7;unknown
73422;BME280;61637;47.760;-122.022;2023-04-05T07:30:00;102268.97799999999;;;1.7;unknown
73422;BME280;61637;47.760;-122.022;2023-04-05T07:32:00;102268.97799999999;;;1.7;unknown
73422;BME280;61637;47.760;-122.022;2023-04-05T07:34:00;102268.97799999999;;;1.7;unknown
73422;BME280;61637;47.760;-122.022;2023-04-05T07:36:00;102268.97799999999;;;1.7;unknown
73422;BME280;61637;47.760;-122.022;2023-04-05T07:38:00;102268.97799999999;;;1.7;unknown
73422;BME280;61637;47.760;-122.022;2023-04-05T07:40:01;102268.97799999999;;;1.6;unknown
73422;BME280;61637;47.760;-122.022;2023-04-05T07:42:00;102268.97799999999;;;1.6;unknown
73422;BME280;61637;47.760;-122.022;2023-04-05T07:44:00;102268.97799999999;;;1.6;unknown
73422;BME280;61637;47.760;-122.022;2023-04-05T07:46:01;102268.97799999999;;;1.6;unknown
73422;BME280;61637;47.760;-122.022;2023-04-05T07:48:00;102268.97799999999;;;1.5;unknown
73422;BME280;61637;47.760;-122.022;2023-04-05T07:50:00;102268.97799999999;;;1.5;unknown
73422;BME280;61637;47.760;-122.022;2023-04-05T07:52:00;102268.97799999999;;;1.4;unknown
73422;BME280;61637;47.760;-122.022;2023-04-05T07:54:00;102268.97799999999;;;1.4;unknown
73422;BME280;61637;47.760;-122.022;2023-04-05T07:56:02;102268.97799999999;;;1.3;unknown
73422;BME280;61637;47.760;-122.022;2023-04-05T07:58:00;102268.97799999999;;;1.3;unknown
73422;BME280;61637;47.760;-122.022;2023-04-05T08:00:00;102268.97799999999;;;1.3;unknown
73422;BME280;61637;47.760;-122.022;2023-04-05T08:02:00;102268.97799999999;;;1.3;unknown
73422;BME280;61637;47.760;-122.022;2023-04-05T08:04:00;102268.97799999999;;;1.2;unknown
73422;BME280;61637;47.760;-122.022;2023-04-05T08:06:08;102268.97799999999;;;1.2;unknown
73422;BME280;61637;47.760;-122.022;2023-04-05T08:08:00;102268.97799999999;;;1.2;unknown
73422;BME280;61637;47.760;-122.022;2023-04-05T08:10:00;102268.97799999999;;;1.1;unknown
73422;BME280;61637;47.760;-122.022;2023-04-05T08:12:00;102268.97799999999;;;1.1;unknown
73422;BME280;61637;47.760;-122.022;2023-04-05T08:14:00;102268.97799999999;;;1.1;unknown
73422;BME280;61637;47.760;-122.022;2023-04-05T08:16:00;102268.97799999999;;;1.1;unknown
73422;BME280;61637;47.760;-122.022;2023-04-05T08:18:00;102268.97799999999;;;1.1;unknown
73422;BME280;61637;47.760;-122.022;2023-04-05T08:20:00;102268.97799999999;;;1.1;unknown
73422;BME280;61637;47.760;-122.022;2023-04-05T08:22:00;102268.97799999999;;;1.1;unknown
73422;BME280;61637;47.760;-122.022;2023-04-05T08:24:00;102268.97799999999;;;1.1;unknown
73422;BME280;61637;47.760;-122.022;2023-04-05T08:26:00;102268.97799999999;;;1.1;unknown
73422;BME280;61637;47.760;-122.022;2023-04-05T08:28:00;102268.97799999999;;;1.1;unknown
73422;BME280;61637;47.760;-122.022;2023-04-05T08:30:00;102268.97799999999;;;1.1;unknown
73422;BME280;61637;47.760;-122.022;2023-04-05T08:32:00;102268.97799999999;;;1.1;unknown
73422;BME280;61637;47.760;-122.022;2023-04-05T08:34:00;102268.97799999999;;;1.1;unknown
73422;BME280;61637;47.760;-122.022;2023-04-05T08:36:03;102268.97799999999;;;1.1;unknown
73422;BME280;61637;47.760;-122.022;2023-04-05T08:38:00;102268.97799999999;;;1.1;unknown
73422;BME280;61637;47.760;-122.022;2023-04-05T08:40:01;102268.97799999999;;;1.1;unknown
73422;BME280;61637;47.760;-122.022;2023-04-05T08:42:03;102268.97799999999;;;1.1;unknown
73422;BME280;61637;47.760;-122.022;2023-04-05T08:44:01;102268.97799999999;;;1.1;unknown
73422;BME280;61637;47.760;-122.022;2023-04-05T08:46:00;102268.97799999999;;;1.1;unknown
73422;BME280;61637;47.760;-122.022;2023-04-05T08:48:00;102268.97799999999;;;1.1;unknown
73422;BME280;61637;47.760;-122.022;2023-04-05T08:50:00;102268.97799999999;;;1.1;unknown
73422;BME280;61637;47.760;-122.022;2023-04-05T08:52:01;102268.97799999999;;;1.1;unknown
73422;BME280;61637;47.760;-122.022;2023-04-05T08:54:00;102268.97799999999;;;1.1;unknown
73422;BME280;61637;47.760;-122.022;2023-04-05T08:56:01;102268.97799999999;;;1.1;unknown
73422;BME280;61637;47.760;-122.022;2023-04-05T08:58:00;102268.97799999999;;;1.1;unknown
73422;BME280;61637;47.760;-122.022;2023-04-05T09:00:00;102268.97799999999;;;1.1;unknown
73422;BME280;61637;47.760;-122.022;2023-04-05T09:02:01;102268.97799999999;;;1.1;unknown